createdAt,value
2023-04-20T00:01:56.979Z,7.47
2023-04-20T00:04:23.640Z,5.85
2023-04-20T00:06:51.744Z,7.70
2023-04-20T00:09:19.204Z,6.25
2023-04-20T00:11:45.895Z,6.90
2023-04-20T00:14:12.422Z,8.23
2023-04-20T00:16:38.955Z,8.15
2023-04-20T00:19:07.246Z,6.40
2023-04-20T00:21:34.193Z,7.70
2023-04-20T00:24:00.761Z,6.35
2023-04-20T00:26:27.532Z,8.73
2023-04-20T00:28:54.112Z,6.22
2023-04-20T00:31:20.961Z,7.72
2023-04-20T00:33:48.597Z,7.18
2023-04-20T00:36:15.036Z,9.07
2023-04-20T00:38:41.610Z,6.65
2023-04-20T00:41:08.117Z,6.93
2023-04-20T00:43:34.639Z,8.52
2023-04-20T00:46:01.195Z,6.60
2023-04-20T00:48:27.649Z,8.38
2023-04-20T00:50:54.122Z,7.55
2023-04-20T00:53:20.673Z,7.43
2023-04-20T00:55:47.362Z,6.55
2023-04-20T00:58:13.921Z,9.32
2023-04-20T01:00:40.626Z,6.75
2023-04-20T01:03:08.109Z,6.50
2023-04-20T01:05:34.964Z,7.45
2023-04-20T01:08:01.405Z,6.78
2023-04-20T01:10:27.900Z,6.53
2023-04-20T01:12:54.338Z,9.20
2023-04-20T01:15:20.859Z,8.63
2023-04-20T01:17:47.401Z,6.72
2023-04-20T01:20:14.640Z,7.38
2023-04-20T01:22:49.218Z,6.93
2023-04-20T01:25:16.723Z,8.73
2023-04-20T01:27:43.344Z,7.70
2023-04-20T01:30:10.640Z,8.48
2023-04-20T01:32:37.256Z,11.05
2023-04-20T01:35:04.632Z,8.23
2023-04-20T01:37:31.209Z,7.78
2023-04-20T01:39:57.909Z,8.07
2023-04-20T01:42:24.526Z,6.97
2023-04-20T01:44:51.091Z,7.65
2023-04-20T01:47:19.043Z,8.38
2023-04-20T01:49:45.668Z,9.35
2023-04-20T01:52:12.107Z,8.73
2023-04-20T01:54:38.570Z,6.72
2023-04-20T01:57:05.106Z,5.97
2023-04-20T01:59:31.523Z,7.70
2023-04-20T02:01:58.101Z,6.47
2023-04-20T02:04:25.032Z,8.27
2023-04-20T02:06:51.488Z,6.53
2023-04-20T02:09:18.158Z,7.82
2023-04-20T02:11:44.691Z,8.43
2023-04-20T02:14:11.170Z,8.63
2023-04-20T02:16:37.793Z,9.13
2023-04-20T02:19:04.358Z,7.63
2023-04-20T02:21:31.465Z,7.45
2023-04-20T02:23:57.957Z,6.60
2023-04-20T02:26:24.587Z,7.72
2023-04-20T02:28:51.260Z,8.80
2023-04-20T02:31:17.767Z,7.47
2023-04-20T02:33:44.701Z,7.30
2023-04-20T02:36:11.233Z,6.93
2023-04-20T02:38:38.141Z,6.85
2023-04-20T02:41:04.756Z,7.07
2023-04-20T02:43:31.161Z,8.23
2023-04-20T02:45:57.555Z,7.43
2023-04-20T02:48:24.056Z,7.90
2023-04-20T02:50:50.627Z,7.15
2023-04-20T02:53:17.074Z,6.45
2023-04-20T02:55:43.492Z,7.50
2023-04-20T02:58:10.403Z,7.68
2023-04-20T03:00:36.849Z,7.65
2023-04-20T03:03:03.868Z,9.13
2023-04-20T03:05:30.407Z,7.68
2023-04-20T03:07:56.836Z,7.38
2023-04-20T03:10:23.364Z,8.15
2023-04-20T03:12:49.812Z,8.68
2023-04-20T03:15:17.097Z,6.47
2023-04-20T03:17:43.547Z,6.30
2023-04-20T03:20:11.115Z,6.57
2023-04-20T03:22:37.564Z,6.65
2023-04-20T03:25:04.215Z,7.07
2023-04-20T03:27:30.723Z,6.63
2023-04-20T03:29:57.181Z,7.90
2023-04-20T03:32:23.714Z,7.22
2023-04-20T03:34:50.735Z,7.20
2023-04-20T03:37:17.349Z,5.90
2023-04-20T03:39:43.785Z,6.28
2023-04-20T03:42:10.270Z,14.30
2023-04-20T03:44:36.714Z,7.75
2023-04-20T03:47:03.301Z,6.88
2023-04-20T03:49:30.134Z,7.57
2023-04-20T03:51:56.618Z,7.82
2023-04-20T03:54:23.043Z,6.72
2023-04-20T03:56:49.741Z,7.03
2023-04-20T03:59:16.333Z,7.60
2023-04-20T04:01:44.065Z,6.03
2023-04-20T04:04:11.186Z,5.88
2023-04-20T04:06:37.963Z,6.93
2023-04-20T04:09:04.744Z,7.22
2023-04-20T04:11:31.228Z,7.47
2023-04-20T04:13:58.473Z,7.07
2023-04-20T04:16:25.293Z,8.13
2023-04-20T04:18:51.878Z,6.38
2023-04-20T04:21:18.312Z,7.50
2023-04-20T04:23:44.818Z,7.88
2023-04-20T04:26:12.134Z,10.55
2023-04-20T04:28:38.824Z,7.10
2023-04-20T04:31:08.219Z,6.38
2023-04-20T04:33:34.755Z,7.53
2023-04-20T04:36:01.590Z,5.95
2023-04-20T04:38:28.094Z,7.18
2023-04-20T04:40:54.595Z,6.70
2023-04-20T04:43:21.037Z,8.98
2023-04-20T04:45:47.490Z,7.20
2023-04-20T04:48:14.128Z,7.68
2023-04-20T04:50:40.855Z,6.82
2023-04-20T04:53:07.818Z,5.72
2023-04-20T04:55:34.348Z,5.30
2023-04-20T04:58:01.697Z,6.63
2023-04-20T05:00:29.216Z,5.47
2023-04-20T05:02:55.996Z,6.63
2023-04-20T05:05:22.664Z,8.10
2023-04-20T05:07:49.134Z,7.18
2023-04-20T05:10:15.752Z,5.78
2023-04-20T05:12:42.216Z,7.32
2023-04-20T05:15:09.218Z,8.63
2023-04-20T05:17:35.677Z,8.38
2023-04-20T05:20:02.120Z,5.28
2023-04-20T05:22:28.548Z,6.03
2023-04-20T05:24:55.265Z,7.13
2023-04-20T05:27:21.968Z,6.57
2023-04-20T05:29:48.505Z,8.68
2023-04-20T05:32:15.300Z,6.45
2023-04-20T05:34:41.934Z,6.60
2023-04-20T05:37:09.430Z,6.50
2023-04-20T05:39:35.932Z,6.72
2023-04-20T05:42:02.509Z,6.55
2023-04-20T05:44:30.380Z,5.10
2023-04-20T05:46:56.946Z,5.13
2023-04-20T05:49:23.396Z,5.93
2023-04-20T05:51:50.936Z,7.22
2023-04-20T05:54:17.394Z,7.47
2023-04-20T05:56:43.923Z,5.05
2023-04-20T05:59:10.534Z,7.32
2023-04-20T06:01:37.168Z,6.72
2023-04-20T06:04:03.826Z,8.45
2023-04-20T06:06:30.798Z,9.93
2023-04-20T06:08:58.129Z,6.43
2023-04-20T06:11:24.719Z,4.90
2023-04-20T06:13:51.290Z,6.05
2023-04-20T06:16:17.769Z,7.45
2023-04-20T06:18:44.292Z,5.15
2023-04-20T06:21:11.639Z,7.10
2023-04-20T06:23:38.394Z,5.78
2023-04-20T06:26:08.395Z,6.57
2023-04-20T06:28:36.019Z,6.60
2023-04-20T06:31:03.467Z,7.85
2023-04-20T06:33:30.174Z,7.03
2023-04-20T06:35:56.991Z,7.45
2023-04-20T06:38:25.474Z,7.18
2023-04-20T06:40:52.121Z,7.10
2023-04-20T06:43:18.531Z,8.73
2023-04-20T06:45:45.204Z,7.10
2023-04-20T06:48:24.000Z,6.72
2023-04-20T06:50:57.698Z,6.28
2023-04-20T06:53:24.155Z,11.13
2023-04-20T06:55:50.657Z,7.80
2023-04-20T06:58:17.250Z,6.68
2023-04-20T07:00:44.169Z,7.80
2023-04-20T07:03:10.997Z,7.38
2023-04-20T07:05:37.774Z,9.07
2023-04-20T07:08:04.373Z,4.97
2023-04-20T07:10:31.002Z,7.45
2023-04-20T07:12:57.476Z,8.18
2023-04-20T07:15:24.076Z,6.03
2023-04-20T07:17:50.806Z,7.50
2023-04-20T07:20:17.265Z,7.22
2023-04-20T07:22:43.861Z,7.80
2023-04-20T07:25:10.629Z,9.15
2023-04-20T07:27:38.955Z,11.10
2023-04-20T07:30:07.505Z,7.45
2023-04-20T07:35:01.000Z,8.18
2023-04-20T07:37:27.665Z,6.00
2023-04-20T07:39:54.322Z,6.43
2023-04-20T07:42:21.554Z,7.93
2023-04-20T07:44:48.485Z,6.95
2023-04-20T07:47:14.935Z,6.55
2023-04-20T07:49:42.256Z,7.25
2023-04-20T07:52:16.544Z,8.55
2023-04-20T07:54:44.876Z,6.43
2023-04-20T07:57:11.502Z,7.97
2023-04-20T07:59:38.060Z,7.25
2023-04-20T08:02:04.727Z,7.80
2023-04-20T08:04:31.657Z,7.15
2023-04-20T08:06:58.419Z,6.63
2023-04-20T08:09:26.178Z,6.78
2023-04-20T08:11:52.615Z,6.55
2023-04-20T08:14:19.611Z,7.15
2023-04-20T08:16:46.347Z,8.55
2023-04-20T08:19:15.605Z,8.30
2023-04-20T08:21:42.717Z,7.80
2023-04-20T08:24:09.683Z,8.38
2023-04-20T08:26:36.453Z,7.18
2023-04-20T08:29:04.172Z,9.93
2023-04-20T08:31:30.906Z,7.50
2023-04-20T08:33:57.626Z,7.75
2023-04-20T08:36:24.417Z,7.70
2023-04-20T08:38:57.974Z,10.15
2023-04-20T08:41:25.796Z,7.43
2023-04-20T08:43:52.443Z,9.50
2023-04-20T08:46:19.571Z,7.63
2023-04-20T08:48:47.662Z,8.63
2023-04-20T08:51:17.087Z,8.98
2023-04-20T08:53:43.653Z,7.80
2023-04-20T08:56:10.752Z,8.68
2023-04-20T08:58:42.173Z,7.47
2023-04-20T09:01:10.524Z,9.27
2023-04-20T09:03:42.280Z,7.53
2023-04-20T09:06:17.128Z,7.78
2023-04-20T09:08:44.804Z,7.30
2023-04-20T09:11:22.650Z,8.43
2023-04-20T09:13:59.944Z,8.10
2023-04-20T09:16:26.494Z,7.57
2023-04-20T09:18:54.715Z,9.00
2023-04-20T09:21:22.176Z,9.35
2023-04-20T09:24:08.258Z,8.07
2023-04-20T09:26:36.369Z,8.90
2023-04-20T09:29:04.301Z,8.75
2023-04-20T09:31:30.797Z,10.10
2023-04-20T09:34:02.702Z,7.57
2023-04-20T09:37:01.852Z,7.97
2023-04-20T09:39:28.387Z,8.13
2023-04-20T09:42:01.603Z,11.02
2023-04-20T09:44:28.179Z,8.52
2023-04-20T09:46:54.702Z,8.05
2023-04-20T09:49:21.559Z,8.95
2023-04-20T09:51:48.684Z,7.35
2023-04-20T09:54:15.948Z,8.88
2023-04-20T09:56:43.115Z,8.25
2023-04-20T09:59:09.515Z,9.70
2023-04-20T10:01:38.030Z,8.55
2023-04-20T10:04:09.672Z,10.13
2023-04-20T10:06:37.321Z,8.75
2023-04-20T10:09:08.470Z,9.45
2023-04-20T10:11:52.797Z,8.23
2023-04-20T10:14:23.221Z,10.73
2023-04-20T10:17:08.841Z,9.15
2023-04-20T10:19:42.768Z,9.35
2023-04-20T10:22:11.521Z,9.38
2023-04-20T10:24:38.453Z,8.60
2023-04-20T10:27:16.739Z,8.60
2023-04-20T10:29:43.253Z,12.55
2023-04-20T10:32:30.152Z,7.55
2023-04-20T10:35:06.853Z,8.95
2023-04-20T10:37:33.650Z,9.32
2023-04-20T10:40:00.932Z,8.82
2023-04-20T10:42:29.629Z,8.52
2023-04-20T10:44:56.465Z,8.07
2023-04-20T10:47:31.726Z,9.20
2023-04-20T10:50:12.865Z,10.90
2023-04-20T10:52:41.950Z,10.23
2023-04-20T10:55:22.931Z,9.07
2023-04-20T10:57:50.652Z,8.35
2023-04-20T11:00:19.108Z,9.85
2023-04-20T11:05:27.264Z,8.52
2023-04-20T11:07:58.249Z,8.85
2023-04-20T11:10:37.397Z,8.52
2023-04-20T11:13:03.983Z,7.43
2023-04-20T11:15:35.281Z,7.38
2023-04-20T11:18:12.056Z,9.18
2023-04-20T11:20:51.103Z,7.53
2023-04-20T11:23:19.779Z,11.45
2023-04-20T11:25:54.376Z,7.65
2023-04-20T11:28:21.004Z,8.45
2023-04-20T11:30:49.692Z,7.30
2023-04-20T11:33:27.669Z,7.13
2023-04-20T11:35:55.541Z,9.43
2023-04-20T11:38:32.982Z,6.28
2023-04-20T11:41:04.485Z,8.68
2023-04-20T11:43:32.176Z,7.88
2023-04-20T11:45:59.789Z,8.25
2023-04-20T11:48:27.538Z,8.20
2023-04-20T11:50:54.070Z,7.00
2023-04-20T11:53:21.092Z,10.15
2023-04-20T11:55:47.561Z,7.72
2023-04-20T11:58:14.107Z,7.00
2023-04-20T12:00:40.702Z,6.80
2023-04-20T12:03:07.361Z,7.53
2023-04-20T12:05:34.095Z,8.18
2023-04-20T12:08:00.671Z,8.15
2023-04-20T12:10:27.194Z,9.50
2023-04-20T12:12:53.756Z,7.20
2023-04-20T12:15:20.350Z,8.50
2023-04-20T12:17:46.893Z,9.30
2023-04-20T12:20:14.353Z,6.97
2023-04-20T12:22:41.039Z,7.28
2023-04-20T12:25:07.947Z,8.65
2023-04-20T12:27:34.411Z,8.38
2023-04-20T12:30:00.864Z,7.53
2023-04-20T12:32:27.285Z,9.57
2023-04-20T12:34:53.753Z,7.35
2023-04-20T12:37:20.748Z,7.63
2023-04-20T12:39:47.397Z,7.80
2023-04-20T12:42:13.858Z,7.75
2023-04-20T12:44:40.328Z,7.40
2023-04-20T12:47:06.895Z,7.28
2023-04-20T12:49:33.823Z,7.72
2023-04-20T12:52:00.582Z,7.65
2023-04-20T12:54:27.156Z,9.80
2023-04-20T12:56:53.666Z,8.57
2023-04-20T12:59:20.220Z,8.10
2023-04-20T13:01:46.748Z,12.35
2023-04-20T13:04:15.941Z,8.70
2023-04-20T13:06:42.845Z,8.57
2023-04-20T13:09:09.335Z,8.05
2023-04-20T13:11:35.847Z,8.02
2023-04-20T13:14:02.387Z,9.10
2023-04-20T13:16:29.356Z,9.02
2023-04-20T13:18:56.341Z,8.05
2023-04-20T13:21:22.823Z,9.35
2023-04-20T13:23:49.274Z,9.13
2023-04-20T13:26:15.980Z,10.95
2023-04-20T13:28:42.598Z,9.75
2023-04-20T13:31:09.067Z,9.20
2023-04-20T13:33:35.827Z,9.73
2023-04-20T13:36:02.738Z,8.18
2023-04-20T13:38:29.268Z,9.98
2023-04-20T13:40:56.043Z,8.38
2023-04-20T13:43:22.580Z,8.70
2023-04-20T13:45:49.061Z,10.23
2023-04-20T13:48:15.578Z,8.90
2023-04-20T13:50:42.086Z,10.80
2023-04-20T13:53:08.654Z,10.40
2023-04-20T13:55:35.125Z,9.18
2023-04-20T13:58:01.683Z,8.57
2023-04-20T14:00:28.132Z,9.07
2023-04-20T14:02:54.618Z,9.23
2023-04-20T14:05:21.180Z,8.88
2023-04-20T14:07:47.646Z,9.55
2023-04-20T14:10:14.742Z,8.90
2023-04-20T14:12:41.321Z,8.68
2023-04-20T14:15:08.226Z,9.45
2023-04-20T14:17:34.769Z,8.95
2023-04-20T14:20:01.994Z,9.48
2023-04-20T14:22:34.265Z,9.07
2023-04-20T14:25:00.806Z,10.45
2023-04-20T14:27:27.261Z,8.52
2023-04-20T14:29:53.721Z,9.50
2023-04-20T14:32:20.317Z,9.88
2023-04-20T14:34:46.795Z,10.98
2023-04-20T14:37:13.301Z,9.50
2023-04-20T14:39:39.928Z,10.73
2023-04-20T14:42:07.552Z,8.40
2023-04-20T14:44:34.117Z,9.23
2023-04-20T14:47:01.736Z,8.80
2023-04-20T14:49:28.512Z,9.82
2023-04-20T14:51:54.927Z,9.90
2023-04-20T14:54:21.373Z,10.80
2023-04-20T14:56:47.785Z,10.30
2023-04-20T14:59:14.335Z,9.77
2023-04-20T15:01:51.379Z,8.40
2023-04-20T15:04:25.735Z,11.23
2023-04-20T15:06:52.642Z,9.45
2023-04-20T15:09:19.099Z,9.20
2023-04-20T15:11:45.514Z,11.50
2023-04-20T15:14:11.958Z,10.25
2023-04-20T15:16:38.480Z,8.93
2023-04-20T15:19:05.074Z,11.52
2023-04-20T15:21:32.258Z,9.13
2023-04-20T15:23:58.829Z,9.95
2023-04-20T15:26:25.437Z,10.55
2023-04-20T15:28:51.923Z,11.75
2023-04-20T15:31:19.175Z,10.30
2023-04-20T15:33:48.090Z,11.07
2023-04-20T15:36:18.243Z,9.80
2023-04-20T15:38:44.801Z,9.35
2023-04-20T15:41:11.575Z,10.43
2023-04-20T15:43:39.337Z,12.43
2023-04-20T15:46:06.026Z,10.07
2023-04-20T15:48:32.648Z,9.68
2023-04-20T15:50:59.220Z,10.80
2023-04-20T15:53:25.730Z,11.32
2023-04-20T15:55:52.430Z,10.38
2023-04-20T15:58:18.981Z,11.02
2023-04-20T16:00:46.276Z,9.75
2023-04-20T16:03:13.071Z,12.02
2023-04-20T16:05:39.758Z,10.98
2023-04-20T16:08:06.286Z,9.93
2023-04-20T16:10:33.300Z,9.60
2023-04-20T16:12:59.779Z,9.50
2023-04-20T16:15:26.347Z,9.25
2023-04-20T16:17:53.605Z,10.00
2023-04-20T16:20:20.260Z,9.85
2023-04-20T16:22:46.753Z,10.25
2023-04-20T16:25:22.374Z,9.40
2023-04-20T16:27:50.857Z,10.38
2023-04-20T16:30:17.756Z,9.27
2023-04-20T16:32:44.273Z,11.73
2023-04-20T16:35:10.887Z,9.73
2023-04-20T16:37:37.323Z,9.45
2023-04-20T16:40:05.482Z,8.75
2023-04-20T16:42:31.992Z,8.55
2023-04-20T16:44:58.497Z,8.50
2023-04-20T16:47:25.081Z,9.55
2023-04-20T16:49:51.611Z,11.02
2023-04-20T16:52:18.130Z,10.10
2023-04-20T16:54:44.636Z,8.93
2023-04-20T16:57:11.132Z,10.20
2023-04-20T16:59:37.610Z,10.35
2023-04-20T17:02:04.221Z,11.95
2023-04-20T17:04:30.965Z,10.63
2023-04-20T17:06:57.468Z,9.57
2023-04-20T17:09:24.000Z,10.13
2023-04-20T17:11:50.652Z,9.98
2023-04-20T17:14:17.383Z,9.75
2023-04-20T17:16:44.111Z,10.68
2023-04-20T17:19:10.628Z,9.65
2023-04-20T17:21:37.161Z,9.88
2023-04-20T17:24:03.791Z,11.50
2023-04-20T17:26:30.215Z,9.65
2023-04-20T17:28:56.679Z,10.45
2023-04-20T17:31:23.162Z,9.63
2023-04-20T17:33:49.687Z,10.10
2023-04-20T17:36:16.182Z,10.30
2023-04-20T17:38:45.325Z,10.70
2023-04-20T17:41:11.861Z,11.10
2023-04-20T17:43:40.410Z,10.85
2023-04-20T17:46:07.809Z,11.07
2023-04-20T17:48:34.372Z,10.57
2023-04-20T17:51:00.759Z,9.90
2023-04-20T17:53:27.503Z,10.57
2023-04-20T17:55:53.989Z,9.73
2023-04-20T17:58:20.612Z,9.80
2023-04-20T18:00:47.698Z,9.18
2023-04-20T18:03:15.010Z,10.82
2023-04-20T18:05:42.175Z,11.85
2023-04-20T18:08:10.316Z,9.02
2023-04-20T18:10:37.520Z,10.68
2023-04-20T18:13:04.090Z,11.57
2023-04-20T18:15:30.586Z,9.48
2023-04-20T18:17:57.166Z,9.75
2023-04-20T18:20:23.924Z,10.63
2023-04-20T18:22:50.664Z,10.13
2023-04-20T18:25:18.917Z,10.32
2023-04-20T18:27:45.944Z,9.95
2023-04-20T18:30:13.769Z,9.63
2023-04-20T18:32:40.537Z,9.95
2023-04-20T18:35:08.274Z,10.98
2023-04-20T18:37:34.766Z,11.50
2023-04-20T18:40:01.252Z,10.82
2023-04-20T18:42:27.816Z,9.48
2023-04-20T18:44:54.303Z,10.07
2023-04-20T18:47:22.130Z,10.73
2023-04-20T18:49:48.547Z,10.45
2023-04-20T18:52:15.004Z,10.48
2023-04-20T18:54:41.733Z,10.75
2023-04-20T18:57:08.199Z,10.10
2023-04-20T18:59:34.814Z,12.38
2023-04-20T19:02:01.329Z,10.38
2023-04-20T19:04:27.938Z,10.45
2023-04-20T19:06:54.461Z,11.05
2023-04-20T19:09:20.982Z,10.48
2023-04-20T19:11:47.522Z,10.73
2023-04-20T19:14:13.938Z,11.15
2023-04-20T19:16:40.532Z,13.35
2023-04-20T19:19:07.767Z,10.32
2023-04-20T19:21:34.315Z,11.30
2023-04-20T19:24:01.136Z,11.50
2023-04-20T19:26:27.587Z,10.93
2023-04-20T19:28:54.036Z,11.68
2023-04-20T19:31:20.712Z,10.93
2023-04-20T19:33:47.387Z,10.98
2023-04-20T19:36:13.967Z,11.93
2023-04-20T19:38:40.645Z,9.77
2023-04-20T19:41:07.242Z,11.60
2023-04-20T19:43:34.546Z,11.05
2023-04-20T19:46:01.111Z,11.20
2023-04-20T19:48:27.621Z,10.90
2023-04-20T19:50:56.700Z,12.07
2023-04-20T19:53:25.115Z,11.93
2023-04-20T19:58:18.000Z,11.77
2023-04-20T20:00:44.928Z,11.85
2023-04-20T20:03:12.391Z,12.25
2023-04-20T20:05:38.934Z,12.73
2023-04-20T20:08:05.395Z,14.00
2023-04-20T20:10:32.064Z,12.98
2023-04-20T20:12:58.564Z,11.93
2023-04-20T20:15:25.063Z,14.35
2023-04-20T20:17:55.238Z,12.95
2023-04-20T20:20:30.044Z,12.73
2023-04-20T20:22:57.007Z,13.93
2023-04-20T20:25:23.706Z,13.32
2023-04-20T20:27:50.328Z,13.93
2023-04-20T20:30:16.766Z,13.57
2023-04-20T20:32:43.621Z,14.48
2023-04-20T20:35:12.009Z,14.05
2023-04-20T20:37:40.203Z,13.43
2023-04-20T20:40:11.272Z,15.52
2023-04-20T20:42:39.887Z,15.45
2023-04-20T20:45:08.015Z,12.90
2023-04-20T20:47:34.448Z,13.98
2023-04-20T20:50:01.008Z,14.52
2023-04-20T20:52:27.520Z,15.07
2023-04-20T20:54:53.914Z,15.43
2023-04-20T20:57:20.637Z,16.75
2023-04-20T20:59:47.078Z,14.40
2023-04-20T21:02:13.713Z,15.05
2023-04-20T21:04:40.617Z,15.32
2023-04-20T21:07:07.086Z,16.23
2023-04-20T21:09:33.693Z,14.43
2023-04-20T21:12:00.715Z,16.85
2023-04-20T21:14:27.108Z,15.57
2023-04-20T21:16:53.734Z,15.20
2023-04-20T21:19:20.574Z,14.32
2023-04-20T21:21:47.316Z,15.55
2023-04-20T21:24:13.741Z,16.17
2023-04-20T21:26:40.117Z,15.88
2023-04-20T21:29:06.663Z,15.90
2023-04-20T21:31:33.286Z,16.98
2023-04-20T21:34:00.118Z,17.95
2023-04-20T21:36:27.786Z,15.95
2023-04-20T21:38:54.225Z,16.02
2023-04-20T21:41:21.662Z,16.73
2023-04-20T21:43:48.113Z,16.58
2023-04-20T21:46:17.804Z,17.10
2023-04-20T21:48:44.341Z,17.40
2023-04-20T21:51:18.302Z,16.45
2023-04-20T21:53:45.400Z,16.10
2023-04-20T21:56:12.156Z,16.52
2023-04-20T21:58:38.575Z,16.92
2023-04-20T22:01:05.185Z,16.23
2023-04-20T22:03:33.760Z,16.05
2023-04-20T22:06:00.864Z,17.67
2023-04-20T22:08:27.433Z,17.33
2023-04-20T22:10:53.962Z,17.95
2023-04-20T22:13:20.460Z,17.58
2023-04-20T22:15:47.422Z,15.40
2023-04-20T22:18:14.139Z,18.73
2023-04-20T22:20:40.654Z,16.58
2023-04-20T22:23:07.045Z,16.52
2023-04-20T22:25:33.542Z,17.20
2023-04-20T22:28:00.049Z,15.82
2023-04-20T22:30:26.681Z,19.70
2023-04-20T22:32:53.257Z,17.45
2023-04-20T22:35:19.914Z,17.55
2023-04-20T22:37:46.362Z,17.35
2023-04-20T22:40:14.078Z,17.42
2023-04-20T22:42:40.642Z,17.50
2023-04-20T22:45:09.449Z,17.13
2023-04-20T22:47:36.063Z,16.45
2023-04-20T22:50:03.355Z,19.92
2023-04-20T22:52:29.856Z,18.15
2023-04-20T22:54:56.368Z,19.67
2023-04-20T22:57:22.822Z,18.70
2023-04-20T22:59:49.512Z,21.45
2023-04-20T23:02:16.364Z,18.75
2023-04-20T23:04:44.292Z,20.15
2023-04-20T23:07:11.601Z,19.02
2023-04-20T23:09:40.631Z,19.00
2023-04-20T23:12:11.687Z,18.05
2023-04-20T23:14:42.367Z,20.45
2023-04-20T23:17:09.381Z,18.73
2023-04-20T23:19:35.958Z,19.08
2023-04-20T23:22:03.277Z,19.80
2023-04-20T23:24:29.829Z,19.63
2023-04-20T23:26:57.521Z,19.35
2023-04-20T23:29:23.977Z,18.52
2023-04-20T23:31:50.635Z,20.05
2023-04-20T23:34:17.548Z,19.85
2023-04-20T23:36:43.941Z,20.08
2023-04-20T23:39:10.427Z,18.20
2023-04-20T23:41:36.996Z,21.35
2023-04-20T23:44:03.715Z,19.20
2023-04-20T23:46:30.184Z,21.00
2023-04-20T23:48:56.744Z,19.05
2023-04-20T23:51:23.239Z,20.20
2023-04-20T23:53:49.685Z,19.08
2023-04-20T23:56:16.211Z,20.25
2023-04-20T23:58:42.651Z,21.40
